sensor_id;sensor_type;location;lat;lon;timestamp;temperature;humidity
6484;DHT22;3275;52.376;9.694;2023-12-22T06:13:16;5.40;99.90
6484;DHT22;3275;52.376;9.694;2023-12-22T06:15:42;5.40;99.90
6484;DHT22;3275;52.376;9.694;2023-12-22T06:18:09;5.40;99.90
6484;DHT22;3275;52.376;9.694;2023-12-22T06:20:36;5.40;99.90
6484;DHT22;3275;52.376;9.694;2023-12-22T06:23:02;5.40;99.90
6484;DHT22;3275;52.376;9.694;2023-12-22T06:25:29;5.40;99.90
6484;DHT22;3275;52.376;9.694;2023-12-22T06:27:56;5.30;99.90
6484;DHT22;3275;52.376;9.694;2023-12-22T06:30:24;4.80;99.90
6484;DHT22;3275;52.376;9.694;2023-12-22T06:32:50;4.30;99.90
6484;DHT22;3275;52.376;9.694;2023-12-22T06:35:17;4.10;99.90
6484;DHT22;3275;52.376;9.694;2023-12-22T06:37:49;4.10;99.90
6484;DHT22;3275;52.376;9.694;2023-12-22T06:40:15;4.10;99.90
6484;DHT22;3275;52.376;9.694;2023-12-22T06:42:42;4.10;99.90
6484;DHT22;3275;52.376;9.694;2023-12-22T06:45:09;4.10;99.90
6484;DHT22;3275;52.376;9.694;2023-12-22T06:47:37;4.10;99.90
6484;DHT22;3275;52.376;9.694;2023-12-22T06:50:04;4.00;99.90
6484;DHT22;3275;52.376;9.694;2023-12-22T06:52:31;4.10;99.90
6484;DHT22;3275;52.376;9.694;2023-12-22T06:54:58;4.10;99.90
6484;DHT22;3275;52.376;9.694;2023-12-22T06:57:24;4.10;99.90
6484;DHT22;3275;52.376;9.694;2023-12-22T06:59:51;4.10;99.90
6484;DHT22;3275;52.376;9.694;2023-12-22T07:02:17;4.00;99.90
6484;DHT22;3275;52.376;9.694;2023-12-22T07:05:05;4.10;99.90
6484;DHT22;3275;52.376;9.694;2023-12-22T07:07:52;4.20;99.90
6484;DHT22;3275;52.376;9.694;2023-12-22T07:10:19;4.20;99.90
6484;DHT22;3275;52.376;9.694;2023-12-22T07:12:45;4.40;99.90
6484;DHT22;3275;52.376;9.694;2023-12-22T07:15:12;4.30;99.90
6484;DHT22;3275;52.376;9.694;2023-12-22T07:17:39;4.40;99.90
6484;DHT22;3275;52.376;9.694;2023-12-22T07:20:06;4.50;99.90
6484;DHT22;3275;52.376;9.694;2023-12-22T07:22:34;4.70;99.90
6484;DHT22;3275;52.376;9.694;2023-12-22T07:25:02;4.70;99.90
6484;DHT22;3275;52.376;9.694;2023-12-22T07:27:29;4.70;99.90
6484;DHT22;3275;52.376;9.694;2023-12-22T07:29:56;4.90;99.90
6484;DHT22;3275;52.376;9.694;2023-12-22T07:32:22;5.00;99.90
6484;DHT22;3275;52.376;9.694;2023-12-22T07:34:49;4.90;99.90
6484;DHT22;3275;52.376;9.694;2023-12-22T07:37:15;5.00;99.90
6484;DHT22;3275;52.376;9.694;2023-12-22T07:39:42;5.00;99.90
6484;DHT22;3275;52.376;9.694;2023-12-22T07:42:12;5.00;99.90
6484;DHT22;3275;52.376;9.694;2023-12-22T07:44:38;4.90;99.90
6484;DHT22;3275;52.376;9.694;2023-12-22T07:47:05;4.90;99.90
6484;DHT22;3275;52.376;9.694;2023-12-22T07:49:32;4.90;99.90
6484;DHT22;3275;52.376;9.694;2023-12-22T07:51:58;5.00;99.90
6484;DHT22;3275;52.376;9.694;2023-12-22T07:54:25;4.90;99.90
6484;DHT22;3275;52.376;9.694;2023-12-22T07:56:51;4.90;99.90
6484;DHT22;3275;52.376;9.694;2023-12-22T07:59:19;5.00;99.90
6484;DHT22;3275;52.376;9.694;2023-12-22T13:17:11;7.10;99.90
6484;DHT22;3275;52.376;9.694;2023-12-22T13:19:37;7.20;99.90
6484;DHT22;3275;52.376;9.694;2023-12-22T13:22:04;7.20;99.90
6484;DHT22;3275;52.376;9.694;2023-12-22T13:24:31;7.10;99.90
6484;DHT22;3275;52.376;9.694;2023-12-22T13:27:01;7.10;99.90
6484;DHT22;3275;52.376;9.694;2023-12-22T13:29:29;7.20;99.90
6484;DHT22;3275;52.376;9.694;2023-12-22T13:31:56;7.20;99.90
6484;DHT22;3275;52.376;9.694;2023-12-22T13:34:25;7.10;99.90
6484;DHT22;3275;52.376;9.694;2023-12-22T13:36:52;7.10;99.90
6484;DHT22;3275;52.376;9.694;2023-12-22T13:39:19;7.20;99.90
6484;DHT22;3275;52.376;9.694;2023-12-22T13:41:45;7.10;99.90
6484;DHT22;3275;52.376;9.694;2023-12-22T13:44:12;7.00;99.90
6484;DHT22;3275;52.376;9.694;2023-12-22T13:46:39;7.00;99.90
6484;DHT22;3275;52.376;9.694;2023-12-22T13:49:08;7.10;99.90
6484;DHT22;3275;52.376;9.694;2023-12-22T13:51:40;7.10;99.90
6484;DHT22;3275;52.376;9.694;2023-12-22T13:54:07;7.10;99.90
6484;DHT22;3275;52.376;9.694;2023-12-22T13:56:34;7.10;99.90
6484;DHT22;3275;52.376;9.694;2023-12-22T13:59:02;7.10;99.90
6484;DHT22;3275;52.376;9.694;2023-12-22T14:01:28;7.20;99.90
6484;DHT22;3275;52.376;9.694;2023-12-22T14:03:55;7.20;99.90
6484;DHT22;3275;52.376;9.694;2023-12-22T14:06:24;7.20;99.90
6484;DHT22;3275;52.376;9.694;2023-12-22T14:08:52;7.20;99.90
6484;DHT22;3275;52.376;9.694;2023-12-22T14:11:18;7.20;99.90
6484;DHT22;3275;52.376;9.694;2023-12-22T14:13:45;7.10;99.90
6484;DHT22;3275;52.376;9.694;2023-12-22T14:16:12;7.10;99.90
6484;DHT22;3275;52.376;9.694;2023-12-22T14:18:39;7.10;99.90
6484;DHT22;3275;52.376;9.694;2023-12-22T14:21:05;7.10;99.90
6484;DHT22;3275;52.376;9.694;2023-12-22T14:23:32;6.90;99.90
6484;DHT22;3275;52.376;9.694;2023-12-22T14:26:00;7.00;99.90
6484;DHT22;3275;52.376;9.694;2023-12-22T14:28:26;6.90;99.90
6484;DHT22;3275;52.376;9.694;2023-12-22T14:30:54;6.90;99.90
6484;DHT22;3275;52.376;9.694;2023-12-22T14:33:20;7.00;99.90
6484;DHT22;3275;52.376;9.694;2023-12-22T14:35:47;6.90;99.90
6484;DHT22;3275;52.376;9.694;2023-12-22T14:38:14;6.90;99.90
6484;DHT22;3275;52.376;9.694;2023-12-22T14:40:41;7.00;99.90
6484;DHT22;3275;52.376;9.694;2023-12-22T14:43:08;7.00;99.90
6484;DHT22;3275;52.376;9.694;2023-12-22T14:45:35;6.90;99.90
6484;DHT22;3275;52.376;9.694;2023-12-22T14:48:03;6.90;99.90
6484;DHT22;3275;52.376;9.694;2023-12-22T14:50:29;7.00;99.90
6484;DHT22;3275;52.376;9.694;2023-12-22T14:52:56;7.00;99.90
6484;DHT22;3275;52.376;9.694;2023-12-22T14:55:23;7.00;99.90
6484;DHT22;3275;52.376;9.694;2023-12-22T14:57:50;7.00;99.90
6484;DHT22;3275;52.376;9.694;2023-12-22T15:00:18;7.00;99.90
6484;DHT22;3275;52.376;9.694;2023-12-22T15:02:45;7.00;99.90
6484;DHT22;3275;52.376;9.694;2023-12-22T15:05:12;7.00;99.90
6484;DHT22;3275;52.376;9.694;2023-12-22T15:07:38;6.90;99.90
6484;DHT22;3275;52.376;9.694;2023-12-22T15:10:05;6.90;99.90
6484;DHT22;3275;52.376;9.694;2023-12-22T15:12:33;7.10;99.90
6484;DHT22;3275;52.376;9.694;2023-12-22T15:15:02;7.00;99.90
6484;DHT22;3275;52.376;9.694;2023-12-22T15:17:30;7.00;99.90
6484;DHT22;3275;52.376;9.694;2023-12-22T15:19:57;7.00;99.90
6484;DHT22;3275;52.376;9.694;2023-12-22T15:22:24;7.00;99.90
6484;DHT22;3275;52.376;9.694;2023-12-22T15:24:50;7.00;99.90
6484;DHT22;3275;52.376;9.694;2023-12-22T15:27:17;7.00;99.90
6484;DHT22;3275;52.376;9.694;2023-12-22T15:29:45;7.00;99.90
6484;DHT22;3275;52.376;9.694;2023-12-22T15:32:12;7.00;99.90
6484;DHT22;3275;52.376;9.694;2023-12-22T15:34:42;7.00;99.90
6484;DHT22;3275;52.376;9.694;2023-12-22T15:37:08;7.00;99.90
6484;DHT22;3275;52.376;9.694;2023-12-22T15:39:35;7.00;99.90
6484;DHT22;3275;52.376;9.694;2023-12-22T15:42:02;7.00;99.90
6484;DHT22;3275;52.376;9.694;2023-12-22T15:44:29;6.90;99.90
6484;DHT22;3275;52.376;9.694;2023-12-22T15:46:55;6.90;99.90
6484;DHT22;3275;52.376;9.694;2023-12-22T15:49:22;6.60;99.90
6484;DHT22;3275;52.376;9.694;2023-12-22T15:51:50;6.20;99.90
6484;DHT22;3275;52.376;9.694;2023-12-22T15:54:21;5.80;99.90
6484;DHT22;3275;52.376;9.694;2023-12-22T15:56:47;5.70;99.90
6484;DHT22;3275;52.376;9.694;2023-12-22T15:59:14;5.50;99.90
6484;DHT22;3275;52.376;9.694;2023-12-22T16:01:44;5.40;99.90
6484;DHT22;3275;52.376;9.694;2023-12-22T16:04:11;5.40;99.90
6484;DHT22;3275;52.376;9.694;2023-12-22T16:06:37;5.40;99.90
6484;DHT22;3275;52.376;9.694;2023-12-22T16:09:05;5.40;99.90
6484;DHT22;3275;52.376;9.694;2023-12-22T16:11:32;5.40;99.90
6484;DHT22;3275;52.376;9.694;2023-12-22T16:13:58;5.50;99.90
6484;DHT22;3275;52.376;9.694;2023-12-22T16:16:25;5.50;99.90
6484;DHT22;3275;52.376;9.694;2023-12-22T16:18:52;5.40;99.90
6484;DHT22;3275;52.376;9.694;2023-12-22T16:21:18;5.50;99.90
6484;DHT22;3275;52.376;9.694;2023-12-22T16:23:45;5.40;99.90
6484;DHT22;3275;52.376;9.694;2023-12-22T16:26:18;5.40;99.90
6484;DHT22;3275;52.376;9.694;2023-12-22T16:28:45;5.40;99.90
6484;DHT22;3275;52.376;9.694;2023-12-22T16:31:12;5.40;99.90
6484;DHT22;3275;52.376;9.694;2023-12-22T16:33:39;5.40;99.90
6484;DHT22;3275;52.376;9.694;2023-12-22T16:36:08;5.40;99.90
6484;DHT22;3275;52.376;9.694;2023-12-22T16:38:35;5.50;99.90
6484;DHT22;3275;52.376;9.694;2023-12-22T16:41:02;5.50;99.90
6484;DHT22;3275;52.376;9.694;2023-12-22T16:43:31;5.60;99.90
6484;DHT22;3275;52.376;9.694;2023-12-22T16:45:58;5.70;99.90
6484;DHT22;3275;52.376;9.694;2023-12-22T16:48:25;5.80;99.90
6484;DHT22;3275;52.376;9.694;2023-12-22T16:50:52;5.70;99.90
6484;DHT22;3275;52.376;9.694;2023-12-22T16:53:20;5.70;99.90
6484;DHT22;3275;52.376;9.694;2023-12-22T16:55:47;5.70;99.90
6484;DHT22;3275;52.376;9.694;2023-12-22T16:58:13;5.70;99.90
6484;DHT22;3275;52.376;9.694;2023-12-22T17:00:41;5.70;99.90
6484;DHT22;3275;52.376;9.694;2023-12-22T17:03:08;5.80;99.90
6484;DHT22;3275;52.376;9.694;2023-12-22T17:05:34;5.80;99.90
6484;DHT22;3275;52.376;9.694;2023-12-22T17:08:01;5.80;99.90
6484;DHT22;3275;52.376;9.694;2023-12-22T17:10:28;5.80;99.90
6484;DHT22;3275;52.376;9.694;2023-12-22T17:12:55;5.80;99.90
6484;DHT22;3275;52.376;9.694;2023-12-22T17:15:21;5.80;99.90
6484;DHT22;3275;52.376;9.694;2023-12-22T17:17:49;5.80;99.90
6484;DHT22;3275;52.376;9.694;2023-12-22T17:20:16;5.80;99.90
6484;DHT22;3275;52.376;9.694;2023-12-22T17:22:43;5.80;99.90
6484;DHT22;3275;52.376;9.694;2023-12-22T17:25:09;5.90;99.90
6484;DHT22;3275;52.376;9.694;2023-12-22T17:27:36;5.90;99.90
6484;DHT22;3275;52.376;9.694;2023-12-22T17:30:03;5.90;99.90
6484;DHT22;3275;52.376;9.694;2023-12-22T17:32:30;6.00;99.90
6484;DHT22;3275;52.376;9.694;2023-12-22T17:34:58;5.90;99.90
6484;DHT22;3275;52.376;9.694;2023-12-22T17:37:25;5.90;99.90
6484;DHT22;3275;52.376;9.694;2023-12-22T17:39:51;5.90;99.90
6484;DHT22;3275;52.376;9.694;2023-12-22T17:42:18;6.00;99.90
6484;DHT22;3275;52.376;9.694;2023-12-22T17:44:45;6.00;99.90
6484;DHT22;3275;52.376;9.694;2023-12-22T17:47:11;6.00;99.90
6484;DHT22;3275;52.376;9.694;2023-12-22T17:49:38;6.00;99.90
6484;DHT22;3275;52.376;9.694;2023-12-22T17:52:06;6.00;99.90
6484;DHT22;3275;52.376;9.694;2023-12-22T17:54:33;6.00;99.90
6484;DHT22;3275;52.376;9.694;2023-12-22T17:56:59;5.90;99.90
6484;DHT22;3275;52.376;9.694;2023-12-22T17:59:28;5.90;99.90
6484;DHT22;3275;52.376;9.694;2023-12-22T18:01:55;6.00;99.90
6484;DHT22;3275;52.376;9.694;2023-12-22T18:04:22;6.00;99.90
6484;DHT22;3275;52.376;9.694;2023-12-22T18:06:49;6.00;99.90
6484;DHT22;3275;52.376;9.694;2023-12-22T18:09:17;6.00;99.90
6484;DHT22;3275;52.376;9.694;2023-12-22T18:11:44;6.00;99.90
6484;DHT22;3275;52.376;9.694;2023-12-22T18:14:11;6.00;99.90
6484;DHT22;3275;52.376;9.694;2023-12-22T18:16:39;6.00;99.90
6484;DHT22;3275;52.376;9.694;2023-12-22T18:19:05;5.90;99.90
6484;DHT22;3275;52.376;9.694;2023-12-22T18:21:32;5.90;99.90
6484;DHT22;3275;52.376;9.694;2023-12-22T18:23:58;5.90;99.90
6484;DHT22;3275;52.376;9.694;2023-12-22T18:26:26;5.90;99.90
6484;DHT22;3275;52.376;9.694;2023-12-22T18:28:53;5.90;99.90
6484;DHT22;3275;52.376;9.694;2023-12-22T18:31:20;5.90;99.90
6484;DHT22;3275;52.376;9.694;2023-12-22T18:33:46;5.90;99.90
6484;DHT22;3275;52.376;9.694;2023-12-22T18:36:13;5.90;99.90
6484;DHT22;3275;52.376;9.694;2023-12-22T18:38:40;5.90;99.90
6484;DHT22;3275;52.376;9.694;2023-12-22T18:41:08;5.90;99.90
6484;DHT22;3275;52.376;9.694;2023-12-22T18:43:36;5.90;99.90
6484;DHT22;3275;52.376;9.694;2023-12-22T18:46:03;5.70;99.90
6484;DHT22;3275;52.376;9.694;2023-12-22T18:48:30;5.70;99.90
6484;DHT22;3275;52.376;9.694;2023-12-22T18:50:56;5.70;99.90
6484;DHT22;3275;52.376;9.694;2023-12-22T18:53:23;5.70;99.90
6484;DHT22;3275;52.376;9.694;2023-12-22T18:55:50;5.70;99.90
6484;DHT22;3275;52.376;9.694;2023-12-22T18:58:16;5.70;99.90
6484;DHT22;3275;52.376;9.694;2023-12-22T19:00:47;5.70;99.90
6484;DHT22;3275;52.376;9.694;2023-12-22T19:03:13;5.70;99.90
6484;DHT22;3275;52.376;9.694;2023-12-22T19:05:40;5.80;99.90
6484;DHT22;3275;52.376;9.694;2023-12-22T19:08:06;5.80;99.90
6484;DHT22;3275;52.376;9.694;2023-12-22T19:10:33;5.70;99.90
6484;DHT22;3275;52.376;9.694;2023-12-22T19:13:00;5.80;99.90
6484;DHT22;3275;52.376;9.694;2023-12-22T19:15:26;5.70;99.90
6484;DHT22;3275;52.376;9.694;2023-12-22T19:17:54;5.70;99.90
6484;DHT22;3275;52.376;9.694;2023-12-22T19:20:22;5.70;99.90
6484;DHT22;3275;52.376;9.694;2023-12-22T19:22:49;5.70;99.90
6484;DHT22;3275;52.376;9.694;2023-12-22T19:25:15;5.60;99.90
6484;DHT22;3275;52.376;9.694;2023-12-22T19:27:42;5.60;99.90
6484;DHT22;3275;52.376;9.694;2023-12-22T19:30:11;5.70;99.90
6484;DHT22;3275;52.376;9.694;2023-12-22T19:32:38;5.70;99.90
6484;DHT22;3275;52.376;9.694;2023-12-22T19:35:06;5.60;99.90
6484;DHT22;3275;52.376;9.694;2023-12-22T19:37:33;5.60;99.90
6484;DHT22;3275;52.376;9.694;2023-12-22T19:40:00;5.70;99.90
6484;DHT22;3275;52.376;9.694;2023-12-22T19:42:27;5.80;99.90
6484;DHT22;3275;52.376;9.694;2023-12-22T19:44:57;5.80;99.90
6484;DHT22;3275;52.376;9.694;2023-12-22T19:47:29;5.80;99.90
6484;DHT22;3275;52.376;9.694;2023-12-22T19:49:56;5.80;99.90
6484;DHT22;3275;52.376;9.694;2023-12-22T19:52:27;5.90;99.90
6484;DHT22;3275;52.376;9.694;2023-12-22T19:54:57;5.80;99.90
6484;DHT22;3275;52.376;9.694;2023-12-22T19:57:26;5.80;99.90
6484;DHT22;3275;52.376;9.694;2023-12-22T19:59:53;5.90;99.90
6484;DHT22;3275;52.376;9.694;2023-12-22T20:02:20;5.90;99.90
6484;DHT22;3275;52.376;9.694;2023-12-22T20:04:46;5.90;99.90
6484;DHT22;3275;52.376;9.694;2023-12-22T20:07:13;5.90;99.90
6484;DHT22;3275;52.376;9.694;2023-12-22T20:09:41;6.00;99.90
6484;DHT22;3275;52.376;9.694;2023-12-22T20:12:08;5.90;99.90
6484;DHT22;3275;52.376;9.694;2023-12-22T20:14:35;6.00;99.90
6484;DHT22;3275;52.376;9.694;2023-12-22T20:17:02;6.00;99.90
6484;DHT22;3275;52.376;9.694;2023-12-22T20:19:31;6.00;99.90
6484;DHT22;3275;52.376;9.694;2023-12-22T20:21:57;6.00;99.90
6484;DHT22;3275;52.376;9.694;2023-12-22T20:24:24;6.00;99.90
6484;DHT22;3275;52.376;9.694;2023-12-22T20:26:52;6.00;99.90
6484;DHT22;3275;52.376;9.694;2023-12-22T20:29:19;6.00;99.90
6484;DHT22;3275;52.376;9.694;2023-12-22T20:31:45;5.90;99.90
6484;DHT22;3275;52.376;9.694;2023-12-22T20:34:12;5.90;99.90
6484;DHT22;3275;52.376;9.694;2023-12-22T20:36:38;5.90;99.90
6484;DHT22;3275;52.376;9.694;2023-12-22T20:39:06;5.90;99.90
6484;DHT22;3275;52.376;9.694;2023-12-22T20:41:33;5.80;99.90
6484;DHT22;3275;52.376;9.694;2023-12-22T20:44:01;5.90;99.90
6484;DHT22;3275;52.376;9.694;2023-12-22T20:46:28;6.00;99.90
6484;DHT22;3275;52.376;9.694;2023-12-22T20:48:55;5.90;99.90
6484;DHT22;3275;52.376;9.694;2023-12-22T20:51:22;5.90;99.90
6484;DHT22;3275;52.376;9.694;2023-12-22T20:53:48;6.00;99.90
6484;DHT22;3275;52.376;9.694;2023-12-22T20:56:18;6.00;99.90
6484;DHT22;3275;52.376;9.694;2023-12-22T20:58:45;6.00;99.90
6484;DHT22;3275;52.376;9.694;2023-12-22T21:01:13;6.00;99.90
6484;DHT22;3275;52.376;9.694;2023-12-22T21:03:40;6.10;99.90
6484;DHT22;3275;52.376;9.694;2023-12-22T21:06:13;6.10;99.90
6484;DHT22;3275;52.376;9.694;2023-12-22T21:08:40;6.10;99.90
6484;DHT22;3275;52.376;9.694;2023-12-22T21:11:10;6.10;99.90
6484;DHT22;3275;52.376;9.694;2023-12-22T21:13:36;6.20;99.90
6484;DHT22;3275;52.376;9.694;2023-12-22T21:16:06;6.20;99.90
6484;DHT22;3275;52.376;9.694;2023-12-22T21:18:40;6.20;99.90
6484;DHT22;3275;52.376;9.694;2023-12-22T21:21:11;6.30;99.90
6484;DHT22;3275;52.376;9.694;2023-12-22T21:23:43;6.30;99.90
6484;DHT22;3275;52.376;9.694;2023-12-22T21:26:31;6.10;99.90
6484;DHT22;3275;52.376;9.694;2023-12-22T21:28:57;6.00;99.90
6484;DHT22;3275;52.376;9.694;2023-12-22T21:31:27;6.00;99.90
6484;DHT22;3275;52.376;9.694;2023-12-22T21:33:57;5.90;99.90
6484;DHT22;3275;52.376;9.694;2023-12-22T21:36:25;6.00;99.90
6484;DHT22;3275;52.376;9.694;2023-12-22T21:38:52;6.00;99.90
6484;DHT22;3275;52.376;9.694;2023-12-22T21:41:20;6.00;99.90
6484;DHT22;3275;52.376;9.694;2023-12-22T21:43:48;5.90;99.90
6484;DHT22;3275;52.376;9.694;2023-12-22T21:46:15;5.90;99.90
6484;DHT22;3275;52.376;9.694;2023-12-22T21:48:44;5.90;99.90
6484;DHT22;3275;52.376;9.694;2023-12-22T21:51:12;5.90;99.90
6484;DHT22;3275;52.376;9.694;2023-12-22T21:53:41;5.90;99.90
6484;DHT22;3275;52.376;9.694;2023-12-22T21:56:21;5.90;99.90
6484;DHT22;3275;52.376;9.694;2023-12-22T21:58:49;5.90;99.90
6484;DHT22;3275;52.376;9.694;2023-12-22T22:01:17;5.80;99.90
6484;DHT22;3275;52.376;9.694;2023-12-22T22:03:45;5.80;99.90
6484;DHT22;3275;52.376;9.694;2023-12-22T22:06:16;5.80;99.90
6484;DHT22;3275;52.376;9.694;2023-12-22T22:08:45;5.70;99.90
6484;DHT22;3275;52.376;9.694;2023-12-22T22:11:12;5.70;99.90
6484;DHT22;3275;52.376;9.694;2023-12-22T22:13:40;5.60;99.90
6484;DHT22;3275;52.376;9.694;2023-12-22T22:16:07;5.70;99.90
6484;DHT22;3275;52.376;9.694;2023-12-22T22:18:37;5.70;99.90
6484;DHT22;3275;52.376;9.694;2023-12-22T22:21:03;5.60;99.90
6484;DHT22;3275;52.376;9.694;2023-12-22T22:23:34;5.70;99.90
6484;DHT22;3275;52.376;9.694;2023-12-22T22:26:01;5.60;99.90
6484;DHT22;3275;52.376;9.694;2023-12-22T22:28:30;5.60;99.90
6484;DHT22;3275;52.376;9.694;2023-12-22T22:30:56;5.70;99.90
6484;DHT22;3275;52.376;9.694;2023-12-22T22:33:25;5.60;99.90
6484;DHT22;3275;52.376;9.694;2023-12-22T22:35:52;5.60;99.90
6484;DHT22;3275;52.376;9.694;2023-12-22T22:38:21;5.50;99.90
6484;DHT22;3275;52.376;9.694;2023-12-22T22:40:52;5.50;99.90
6484;DHT22;3275;52.376;9.694;2023-12-22T22:43:20;5.60;99.90
6484;DHT22;3275;52.376;9.694;2023-12-22T22:45:50;5.60;99.90
6484;DHT22;3275;52.376;9.694;2023-12-22T22:48:16;5.70;99.90
6484;DHT22;3275;52.376;9.694;2023-12-22T22:50:47;5.60;99.90
6484;DHT22;3275;52.376;9.694;2023-12-22T22:53:16;5.50;99.90
6484;DHT22;3275;52.376;9.694;2023-12-22T22:55:43;5.50;99.90
6484;DHT22;3275;52.376;9.694;2023-12-22T22:58:11;5.50;99.90
6484;DHT22;3275;52.376;9.694;2023-12-22T23:00:38;5.60;99.90
6484;DHT22;3275;52.376;9.694;2023-12-22T23:03:07;5.50;99.90
6484;DHT22;3275;52.376;9.694;2023-12-22T23:05:34;5.50;99.90
6484;DHT22;3275;52.376;9.694;2023-12-22T23:08:01;5.50;99.90
6484;DHT22;3275;52.376;9.694;2023-12-22T23:10:27;5.50;99.90
6484;DHT22;3275;52.376;9.694;2023-12-22T23:12:54;5.50;99.90
6484;DHT22;3275;52.376;9.694;2023-12-22T23:15:22;5.50;99.90
6484;DHT22;3275;52.376;9.694;2023-12-22T23:17:48;5.40;99.90
6484;DHT22;3275;52.376;9.694;2023-12-22T23:20:16;5.50;99.90
6484;DHT22;3275;52.376;9.694;2023-12-22T23:22:43;5.40;99.90
6484;DHT22;3275;52.376;9.694;2023-12-22T23:25:09;5.40;99.90
6484;DHT22;3275;52.376;9.694;2023-12-22T23:27:36;5.50;99.90
6484;DHT22;3275;52.376;9.694;2023-12-22T23:30:03;5.60;99.90
6484;DHT22;3275;52.376;9.694;2023-12-22T23:32:33;5.60;99.90
6484;DHT22;3275;52.376;9.694;2023-12-22T23:34:59;5.70;99.90
6484;DHT22;3275;52.376;9.694;2023-12-22T23:37:26;5.60;99.90
6484;DHT22;3275;52.376;9.694;2023-12-22T23:39:52;5.60;99.90
6484;DHT22;3275;52.376;9.694;2023-12-22T23:42:20;5.60;99.90
6484;DHT22;3275;52.376;9.694;2023-12-22T23:44:46;5.50;99.90
6484;DHT22;3275;52.376;9.694;2023-12-22T23:47:13;5.50;99.90
6484;DHT22;3275;52.376;9.694;2023-12-22T23:49:41;5.50;99.90
6484;DHT22;3275;52.376;9.694;2023-12-22T23:52:07;5.50;99.90
6484;DHT22;3275;52.376;9.694;2023-12-22T23:54:34;5.50;99.90
6484;DHT22;3275;52.376;9.694;2023-12-22T23:57:01;5.30;99.90
6484;DHT22;3275;52.376;9.694;2023-12-22T23:59:27;5.20;99.90
